createdAt,value
2022-12-06T00:02:01.259Z,7.43
2022-12-06T00:04:29.122Z,7.83
2022-12-06T00:06:58.356Z,7.37
2022-12-06T00:09:27.736Z,7.00
2022-12-06T00:11:57.436Z,7.47
2022-12-06T00:14:26.485Z,7.97
2022-12-06T00:16:54.367Z,8.30
2022-12-06T00:19:23.693Z,8.27
2022-12-06T00:21:51.551Z,9.20
2022-12-06T00:24:21.506Z,9.00
2022-12-06T00:26:50.175Z,9.30
2022-12-06T00:29:21.389Z,8.93
2022-12-06T00:31:49.423Z,9.33
2022-12-06T00:34:17.522Z,9.07
2022-12-06T00:36:45.399Z,10.07
2022-12-06T00:39:14.304Z,9.33
2022-12-06T00:41:42.518Z,10.20
2022-12-06T00:44:10.526Z,9.93
2022-12-06T00:46:40.274Z,9.50
2022-12-06T00:49:09.449Z,10.33
2022-12-06T00:51:37.995Z,10.90
2022-12-06T00:54:06.224Z,10.60
2022-12-06T00:56:35.872Z,11.97
2022-12-06T00:59:03.807Z,10.50
2022-12-06T01:01:33.296Z,11.43
2022-12-06T01:04:04.704Z,10.77
2022-12-06T01:06:34.665Z,11.40
2022-12-06T01:09:05.048Z,10.63
2022-12-06T01:11:43.260Z,10.73
2022-12-06T01:14:11.036Z,11.20
2022-12-06T01:16:39.759Z,12.03
2022-12-06T01:19:09.248Z,10.77
2022-12-06T01:21:37.024Z,12.50
2022-12-06T01:24:05.191Z,12.17
2022-12-06T01:26:34.587Z,12.47
2022-12-06T01:29:02.644Z,13.00
2022-12-06T01:31:37.730Z,13.40
2022-12-06T01:34:13.928Z,14.63
2022-12-06T01:36:41.748Z,14.03
2022-12-06T01:39:10.650Z,14.80
2022-12-06T01:41:39.887Z,15.77
2022-12-06T01:44:08.651Z,14.23
2022-12-06T01:46:39.406Z,15.10
2022-12-06T01:49:14.407Z,14.33
2022-12-06T01:51:45.199Z,13.67
2022-12-06T01:54:15.211Z,14.10
2022-12-06T01:56:43.401Z,13.60
2022-12-06T01:59:11.711Z,12.83
2022-12-06T02:01:40.529Z,12.90
2022-12-06T02:04:10.066Z,12.63
2022-12-06T02:06:38.497Z,11.87
2022-12-06T02:09:08.300Z,11.87
2022-12-06T02:11:36.419Z,12.77
2022-12-06T02:14:06.243Z,12.97
2022-12-06T02:16:44.035Z,12.00
2022-12-06T02:19:31.259Z,13.83
2022-12-06T02:22:07.311Z,12.70
2022-12-06T02:24:50.083Z,11.57
2022-12-06T02:27:31.363Z,12.17
2022-12-06T02:30:08.845Z,12.67
2022-12-06T02:32:44.073Z,12.70
2022-12-06T02:35:16.398Z,12.30
2022-12-06T02:37:48.127Z,12.70
2022-12-06T02:40:19.147Z,12.33
2022-12-06T02:42:49.479Z,12.40
2022-12-06T02:45:20.419Z,12.27
2022-12-06T02:47:50.679Z,11.83
2022-12-06T02:50:21.315Z,12.13
2022-12-06T02:52:51.077Z,11.80
2022-12-06T02:55:19.412Z,12.50
2022-12-06T02:57:48.828Z,11.50
2022-12-06T03:00:36.036Z,13.13
2022-12-06T03:03:30.853Z,12.57
2022-12-06T03:06:23.363Z,12.67
2022-12-06T03:08:58.196Z,12.40
2022-12-06T03:11:27.554Z,13.40
2022-12-06T03:13:57.925Z,12.27
2022-12-06T03:16:28.927Z,11.53
2022-12-06T03:19:01.012Z,11.47
2022-12-06T03:21:31.732Z,11.80
2022-12-06T03:23:59.732Z,11.70
2022-12-06T03:26:29.303Z,11.43
2022-12-06T03:29:00.639Z,11.50
2022-12-06T03:31:30.867Z,11.73
2022-12-06T03:34:03.165Z,12.87
2022-12-06T03:36:32.475Z,11.43
2022-12-06T03:39:03.219Z,12.37
2022-12-06T03:41:33.278Z,10.63
2022-12-06T03:44:01.156Z,11.23
2022-12-06T03:46:32.437Z,10.13
2022-12-06T03:49:03.421Z,10.80
2022-12-06T03:51:33.732Z,11.80
2022-12-06T03:54:04.248Z,11.27
2022-12-06T03:56:32.461Z,11.10
2022-12-06T03:59:00.358Z,11.67
2022-12-06T04:01:28.303Z,10.90
2022-12-06T04:03:56.205Z,12.27
2022-12-06T04:06:25.444Z,11.13
2022-12-06T04:08:53.536Z,11.67
2022-12-06T04:11:21.741Z,11.47
2022-12-06T04:13:49.514Z,11.13
2022-12-06T04:16:35.055Z,10.73
2022-12-06T04:19:02.841Z,11.33
2022-12-06T04:21:49.461Z,12.83
2022-12-06T04:24:17.244Z,11.70
2022-12-06T04:26:44.963Z,11.17
2022-12-06T04:29:30.244Z,11.97
2022-12-06T04:32:15.443Z,11.53
2022-12-06T04:35:00.871Z,13.07
2022-12-06T04:37:47.504Z,12.60
2022-12-06T04:40:15.384Z,11.07
2022-12-06T04:43:00.440Z,11.93
2022-12-06T04:45:28.241Z,12.63
2022-12-06T04:47:56.117Z,13.77
2022-12-06T04:50:23.870Z,14.57
2022-12-06T04:52:53.033Z,13.80
2022-12-06T04:55:20.831Z,14.10
2022-12-06T04:57:48.614Z,15.20
2022-12-06T05:00:17.108Z,13.80
2022-12-06T05:02:44.895Z,12.30
2022-12-06T05:05:12.833Z,15.80
2022-12-06T05:07:40.662Z,14.03
2022-12-06T05:10:10.606Z,13.93
2022-12-06T05:12:38.368Z,13.80
2022-12-06T05:15:06.679Z,13.47
2022-12-06T05:17:34.403Z,14.07
2022-12-06T05:20:02.447Z,16.57
2022-12-06T05:22:33.681Z,15.17
2022-12-06T05:25:01.475Z,15.43
2022-12-06T05:27:35.671Z,15.73
2022-12-06T05:30:04.577Z,16.53
2022-12-06T05:32:32.434Z,15.30
2022-12-06T05:35:00.257Z,13.67
2022-12-06T05:37:28.009Z,13.40
2022-12-06T05:39:55.889Z,17.07
2022-12-06T05:42:23.701Z,13.03
2022-12-06T05:44:53.016Z,18.03
2022-12-06T05:47:20.865Z,15.23
2022-12-06T05:49:48.621Z,12.10
2022-12-06T05:52:16.506Z,20.77
2022-12-06T05:54:44.287Z,14.20
2022-12-06T05:57:12.124Z,13.17
2022-12-06T05:59:39.902Z,13.63
2022-12-06T06:02:09.613Z,15.87
2022-12-06T06:04:37.497Z,16.43
2022-12-06T06:07:05.280Z,14.07
2022-12-06T06:09:33.092Z,12.27
2022-12-06T06:12:00.830Z,12.37
2022-12-06T06:14:28.606Z,17.10
2022-12-06T06:16:56.534Z,21.13
2022-12-06T06:19:26.028Z,12.13
2022-12-06T06:21:53.827Z,13.13
2022-12-06T06:24:21.825Z,14.30
2022-12-06T06:26:56.559Z,13.20
2022-12-06T06:29:25.187Z,14.03
2022-12-06T06:31:53.038Z,14.27
2022-12-06T06:34:20.959Z,13.00
2022-12-06T06:36:50.116Z,13.43
2022-12-06T06:39:18.355Z,13.57
2022-12-06T06:41:46.610Z,14.30
2022-12-06T06:44:14.985Z,14.00
2022-12-06T06:46:42.728Z,12.33
2022-12-06T06:49:10.540Z,13.37
2022-12-06T06:51:38.326Z,13.13
2022-12-06T06:54:07.580Z,12.53
2022-12-06T06:56:35.398Z,13.17
2022-12-06T06:59:03.195Z,13.37
2022-12-06T07:01:31.105Z,13.77
2022-12-06T07:03:59.028Z,14.77
2022-12-06T07:06:26.879Z,12.70
2022-12-06T07:08:54.640Z,12.67
2022-12-06T07:11:24.308Z,14.23
2022-12-06T07:13:52.906Z,14.10
2022-12-06T07:16:21.206Z,17.13
2022-12-06T07:18:49.231Z,16.80
2022-12-06T07:21:17.852Z,14.77
2022-12-06T07:23:45.933Z,13.13
2022-12-06T07:26:15.665Z,16.63
2022-12-06T07:28:46.012Z,14.13
2022-12-06T07:31:15.510Z,16.30
2022-12-06T07:33:44.264Z,17.07
2022-12-06T07:36:13.808Z,15.07
2022-12-06T07:38:42.555Z,17.17
2022-12-06T07:41:26.200Z,16.37
2022-12-06T07:44:15.165Z,16.43
2022-12-06T07:46:43.403Z,15.00
2022-12-06T07:49:11.411Z,20.33
2022-12-06T07:51:40.090Z,17.97
2022-12-06T07:54:07.973Z,14.90
2022-12-06T07:56:35.790Z,15.73
2022-12-06T07:59:05.004Z,15.07
2022-12-06T08:01:33.195Z,17.13
2022-12-06T08:04:01.280Z,16.37
2022-12-06T08:06:29.242Z,15.23
2022-12-06T08:08:56.987Z,14.97
2022-12-06T08:11:25.021Z,14.00
2022-12-06T08:13:52.805Z,14.40
2022-12-06T08:16:21.983Z,14.43
2022-12-06T08:18:49.912Z,14.87
2022-12-06T08:21:18.628Z,14.30
2022-12-06T08:23:46.417Z,14.53
2022-12-06T08:26:18.732Z,14.90
2022-12-06T08:28:46.697Z,14.63
2022-12-06T08:31:16.361Z,15.53
2022-12-06T08:33:45.605Z,14.63
2022-12-06T08:36:15.304Z,14.23
2022-12-06T08:38:43.460Z,15.20
2022-12-06T08:41:32.221Z,14.03
2022-12-06T08:44:01.276Z,13.63
2022-12-06T08:46:30.092Z,15.10
2022-12-06T08:48:59.299Z,15.07
2022-12-06T08:51:27.166Z,17.20
2022-12-06T08:53:55.879Z,16.30
2022-12-06T08:56:24.773Z,17.67
2022-12-06T08:58:53.901Z,17.70
2022-12-06T09:01:24.133Z,17.33
2022-12-06T09:03:52.013Z,15.87
2022-12-06T09:06:23.336Z,16.77
2022-12-06T09:08:51.451Z,16.33
2022-12-06T09:11:20.496Z,17.87
2022-12-06T09:13:48.270Z,17.60
2022-12-06T09:16:17.625Z,15.87
2022-12-06T09:18:46.593Z,17.73
2022-12-06T09:21:16.093Z,16.43
2022-12-06T09:23:45.501Z,16.47
2022-12-06T09:26:13.790Z,16.43
2022-12-06T09:28:43.390Z,17.83
2022-12-06T09:31:11.606Z,17.53
2022-12-06T09:33:39.719Z,16.83
2022-12-06T09:36:11.168Z,16.53
2022-12-06T09:38:40.533Z,16.37
2022-12-06T09:41:28.996Z,16.03
2022-12-06T09:44:06.509Z,15.37
2022-12-06T09:46:50.244Z,16.40
2022-12-06T09:49:29.884Z,14.00
2022-12-06T09:52:23.929Z,14.33
2022-12-06T09:55:01.111Z,16.00
2022-12-06T09:57:35.491Z,12.97
2022-12-06T10:00:11.365Z,12.20
2022-12-06T10:03:10.569Z,11.77
2022-12-06T10:05:48.080Z,11.87
2022-12-06T10:08:27.109Z,12.40
2022-12-06T10:10:59.291Z,13.03
2022-12-06T10:13:42.230Z,10.60
2022-12-06T10:16:15.360Z,10.67
2022-12-06T10:18:54.591Z,10.23
2022-12-06T10:21:29.117Z,10.30
2022-12-06T10:24:06.962Z,10.33
2022-12-06T10:26:40.347Z,9.40
2022-12-06T10:29:18.299Z,10.13
2022-12-06T10:31:55.387Z,9.77
2022-12-06T10:34:27.184Z,10.00
2022-12-06T10:37:00.181Z,10.40
2022-12-06T10:39:32.777Z,9.73
2022-12-06T10:42:03.593Z,11.17
2022-12-06T10:44:36.283Z,11.60
2022-12-06T10:47:07.094Z,10.53
2022-12-06T10:49:47.582Z,10.60
2022-12-06T10:52:21.717Z,11.03
2022-12-06T10:54:58.025Z,10.27
2022-12-06T10:57:31.302Z,11.10
2022-12-06T11:00:04.685Z,10.37
2022-12-06T11:02:39.765Z,9.60
2022-12-06T11:05:16.202Z,9.00
2022-12-06T11:07:46.762Z,9.27
2022-12-06T11:10:21.184Z,9.57
2022-12-06T11:12:50.368Z,9.07
2022-12-06T11:15:24.445Z,8.73
2022-12-06T11:18:00.858Z,7.93
2022-12-06T11:20:31.310Z,8.70
2022-12-06T11:23:07.157Z,8.20
2022-12-06T11:25:42.036Z,7.80
2022-12-06T11:28:21.767Z,8.30
2022-12-06T11:30:53.236Z,8.10
2022-12-06T11:33:23.203Z,7.90
2022-12-06T11:35:51.225Z,7.43
2022-12-06T11:38:19.213Z,7.97
2022-12-06T11:40:48.180Z,7.53
2022-12-06T11:43:18.721Z,7.53
2022-12-06T11:45:47.273Z,8.13
2022-12-06T11:48:18.085Z,7.37
2022-12-06T11:50:47.974Z,7.90
2022-12-06T11:53:25.217Z,8.20
2022-12-06T11:55:54.950Z,7.60
2022-12-06T11:58:28.052Z,7.13
2022-12-06T12:00:58.580Z,7.23
2022-12-06T12:03:32.933Z,7.30
2022-12-06T12:06:25.020Z,6.87
2022-12-06T12:08:56.810Z,6.20
2022-12-06T12:11:27.547Z,6.80
2022-12-06T12:13:57.556Z,6.47
2022-12-06T12:16:27.225Z,6.27
2022-12-06T12:19:01.845Z,6.60
2022-12-06T12:21:32.530Z,6.63
2022-12-06T12:24:00.562Z,5.83
2022-12-06T12:26:37.560Z,5.87
2022-12-06T12:29:13.726Z,6.07
2022-12-06T12:31:48.077Z,6.60
2022-12-06T12:34:21.450Z,6.47
2022-12-06T12:36:51.596Z,7.33
2022-12-06T12:39:30.195Z,6.57
2022-12-06T12:41:58.124Z,6.63
2022-12-06T12:44:37.580Z,6.30
2022-12-06T12:47:16.789Z,5.90
2022-12-06T12:50:01.013Z,5.37
2022-12-06T12:52:30.626Z,5.73
2022-12-06T12:55:04.235Z,5.17
2022-12-06T12:57:32.147Z,4.90
2022-12-06T12:59:59.897Z,5.70
2022-12-06T13:02:30.147Z,5.53
2022-12-06T13:05:32.718Z,5.17
2022-12-06T13:07:50.998Z,5.27
2022-12-06T13:10:22.375Z,5.40
2022-12-06T13:12:51.950Z,5.00
2022-12-06T13:15:22.318Z,5.23
2022-12-06T13:17:59.270Z,4.13
2022-12-06T13:20:31.689Z,4.33
2022-12-06T13:23:01.732Z,4.40
2022-12-06T13:25:29.649Z,4.07
2022-12-06T13:28:04.983Z,4.90
2022-12-06T13:30:35.331Z,4.83
2022-12-06T13:33:06.043Z,4.30
2022-12-06T13:35:38.556Z,4.83
2022-12-06T13:38:26.798Z,5.20
2022-12-06T13:40:55.403Z,4.93
2022-12-06T13:43:57.148Z,6.33
2022-12-06T13:46:30.237Z,5.30
2022-12-06T13:48:59.090Z,5.60
2022-12-06T13:51:45.933Z,5.37
2022-12-06T13:54:32.236Z,6.13
2022-12-06T13:57:01.325Z,6.00
2022-12-06T13:59:39.184Z,5.93
2022-12-06T14:02:53.069Z,6.17
2022-12-06T14:08:32.770Z,5.23
2022-12-06T14:11:15.872Z,5.37
2022-12-06T14:13:45.801Z,5.33
2022-12-06T14:16:19.972Z,4.47
2022-12-06T14:18:47.953Z,4.00
2022-12-06T14:21:22.360Z,4.03
2022-12-06T14:23:51.572Z,4.00
2022-12-06T14:26:24.953Z,4.23
2022-12-06T14:28:54.353Z,4.23
2022-12-06T14:31:25.654Z,4.37
2022-12-06T14:33:54.616Z,4.57
2022-12-06T14:36:25.926Z,3.50
2022-12-06T14:39:01.439Z,4.13
2022-12-06T14:41:52.284Z,3.60
2022-12-06T14:44:21.387Z,3.70
2022-12-06T14:46:50.257Z,4.40
2022-12-06T14:49:37.951Z,4.40
2022-12-06T14:52:18.521Z,4.37
2022-12-06T14:54:48.259Z,4.07
2022-12-06T14:57:26.859Z,4.60
2022-12-06T15:00:15.159Z,4.07
2022-12-06T15:03:01.030Z,4.53
2022-12-06T15:05:37.211Z,4.17
2022-12-06T15:08:30.166Z,4.17
2022-12-06T15:11:01.083Z,4.77
2022-12-06T15:13:29.222Z,4.47
2022-12-06T15:16:08.138Z,4.90
2022-12-06T15:18:38.256Z,6.90
2022-12-06T15:21:12.477Z,6.03
2022-12-06T15:23:43.008Z,5.37
2022-12-06T15:26:13.288Z,5.37
2022-12-06T15:28:41.244Z,6.50
2022-12-06T15:31:17.465Z,5.40
2022-12-06T15:33:46.019Z,5.77
2022-12-06T15:36:17.940Z,5.93
2022-12-06T15:38:46.562Z,5.30
2022-12-06T15:41:17.631Z,6.53
2022-12-06T15:43:46.032Z,7.23
2022-12-06T15:46:18.631Z,13.10
2022-12-06T15:48:46.571Z,9.43
2022-12-06T15:51:20.311Z,9.80
2022-12-06T15:53:49.824Z,10.33
2022-12-06T15:56:21.105Z,8.70
2022-12-06T15:58:49.367Z,7.50
2022-12-06T16:01:19.627Z,36.10
2022-12-06T16:03:47.693Z,17.53
2022-12-06T16:06:17.028Z,6.27
2022-12-06T16:08:45.642Z,7.10
2022-12-06T16:11:15.995Z,6.47
2022-12-06T16:13:45.600Z,6.97
2022-12-06T16:16:13.963Z,7.63
2022-12-06T16:18:41.852Z,22.90
2022-12-06T16:21:20.630Z,20.07
2022-12-06T16:24:13.068Z,10.20
2022-12-06T16:26:44.158Z,7.37
2022-12-06T16:29:14.840Z,8.40
2022-12-06T16:31:42.715Z,8.90
2022-12-06T16:34:11.020Z,8.80
2022-12-06T16:36:54.490Z,8.33
2022-12-06T16:39:22.784Z,8.07
2022-12-06T16:41:50.592Z,7.53
2022-12-06T16:44:19.901Z,8.37
2022-12-06T16:46:47.747Z,8.73
2022-12-06T16:52:06.806Z,8.23
2022-12-06T16:54:34.709Z,7.63
2022-12-06T16:57:02.654Z,9.53
2022-12-06T16:59:31.899Z,9.00
2022-12-06T17:02:00.392Z,9.60
2022-12-06T17:04:30.662Z,9.67
2022-12-06T17:06:58.591Z,10.13
2022-12-06T17:09:26.695Z,9.63
2022-12-06T17:12:06.022Z,11.13
2022-12-06T17:14:36.088Z,10.27
2022-12-06T17:17:04.416Z,10.53
2022-12-06T17:19:33.568Z,12.20
2022-12-06T17:22:02.298Z,12.30
2022-12-06T17:24:30.576Z,9.90
2022-12-06T17:26:58.983Z,9.67
2022-12-06T17:29:28.423Z,9.83
2022-12-06T17:31:58.059Z,8.97
2022-12-06T17:34:26.439Z,10.83
2022-12-06T17:36:55.057Z,11.20
2022-12-06T17:39:22.946Z,10.47
2022-12-06T17:42:08.063Z,11.13
2022-12-06T17:44:36.106Z,9.40
2022-12-06T17:47:05.669Z,9.30
2022-12-06T17:49:35.833Z,9.50
2022-12-06T17:52:03.775Z,10.03
2022-12-06T17:54:31.699Z,8.93
2022-12-06T17:56:59.567Z,9.13
2022-12-06T17:59:30.267Z,8.60
2022-12-06T18:02:16.431Z,9.50
2022-12-06T18:04:47.313Z,8.27
2022-12-06T18:07:15.734Z,7.63
2022-12-06T18:09:43.557Z,7.90
2022-12-06T18:12:12.854Z,7.53
2022-12-06T18:14:40.747Z,8.90
2022-12-06T18:17:08.795Z,8.03
2022-12-06T18:19:36.716Z,7.97
2022-12-06T18:22:05.843Z,7.63
2022-12-06T18:24:35.856Z,8.50
2022-12-06T18:27:04.931Z,7.43
2022-12-06T18:29:32.980Z,7.73
2022-12-06T18:32:00.834Z,6.80
2022-12-06T18:34:28.662Z,7.60
2022-12-06T18:36:56.463Z,8.03
2022-12-06T18:39:25.617Z,7.63
2022-12-06T18:41:54.118Z,7.90
2022-12-06T18:44:22.035Z,6.80
2022-12-06T18:46:49.833Z,7.30
2022-12-06T18:49:17.742Z,6.67
2022-12-06T18:51:45.607Z,6.93
2022-12-06T18:54:14.628Z,6.97
2022-12-06T18:56:43.834Z,7.30
2022-12-06T18:59:12.890Z,6.70
2022-12-06T19:01:41.852Z,6.40
2022-12-06T19:04:13.116Z,6.60
2022-12-06T19:06:41.199Z,6.70
2022-12-06T19:09:10.461Z,6.90
2022-12-06T19:11:38.825Z,7.77
2022-12-06T19:14:08.189Z,6.40
2022-12-06T19:16:37.774Z,6.93
2022-12-06T19:19:11.438Z,6.60
2022-12-06T19:21:43.746Z,7.37
2022-12-06T19:24:12.653Z,6.63
2022-12-06T19:26:40.508Z,7.00
2022-12-06T19:29:10.755Z,5.83
2022-12-06T19:31:38.728Z,6.87
2022-12-06T19:34:06.723Z,7.27
2022-12-06T19:36:34.511Z,6.80
2022-12-06T19:39:04.306Z,6.30
2022-12-06T19:41:32.115Z,6.40
2022-12-06T19:44:17.116Z,6.83
2022-12-06T19:46:47.447Z,7.07
2022-12-06T19:49:17.582Z,6.60
2022-12-06T19:51:46.720Z,6.73
2022-12-06T19:54:16.606Z,6.87
2022-12-06T19:56:44.368Z,6.50
2022-12-06T19:59:12.546Z,8.43
2022-12-06T20:01:41.754Z,6.90
2022-12-06T20:04:14.828Z,8.77
2022-12-06T20:06:42.666Z,7.70
2022-12-06T20:09:10.429Z,7.13
2022-12-06T20:11:56.606Z,7.13
2022-12-06T20:14:24.660Z,7.40
2022-12-06T20:16:52.684Z,6.83
2022-12-06T20:19:22.296Z,6.90
2022-12-06T20:21:50.499Z,7.73
2022-12-06T20:24:19.932Z,8.53
2022-12-06T20:26:49.228Z,9.43
2022-12-06T20:29:17.880Z,8.50
2022-12-06T20:31:46.004Z,7.70
2022-12-06T20:34:15.696Z,8.37
2022-12-06T20:36:45.279Z,8.23
2022-12-06T20:39:20.831Z,7.93
2022-12-06T20:41:49.438Z,8.80
2022-12-06T20:44:17.741Z,7.63
2022-12-06T20:46:45.671Z,7.57
2022-12-06T20:49:14.043Z,8.33
2022-12-06T20:51:42.470Z,8.03
2022-12-06T20:54:12.805Z,8.17
2022-12-06T20:56:42.401Z,7.87
2022-12-06T20:59:10.925Z,8.97
2022-12-06T21:01:40.548Z,9.00
2022-12-06T21:04:09.268Z,9.37
2022-12-06T21:06:37.105Z,9.17
2022-12-06T21:09:05.048Z,9.00
2022-12-06T21:11:34.287Z,10.13
2022-12-06T21:14:03.301Z,10.83
2022-12-06T21:16:32.087Z,10.87
2022-12-06T21:19:01.674Z,11.23
2022-12-06T21:21:32.276Z,11.87
2022-12-06T21:24:00.579Z,12.00
2022-12-06T21:26:28.995Z,12.30
2022-12-06T21:28:58.137Z,11.63
2022-12-06T21:31:27.897Z,11.33
2022-12-06T21:33:56.079Z,13.10
2022-12-06T21:36:24.391Z,12.30
2022-12-06T21:38:52.332Z,13.77
2022-12-06T21:41:20.173Z,13.97
2022-12-06T21:43:48.203Z,13.40
2022-12-06T21:46:20.066Z,13.33
2022-12-06T21:48:51.339Z,14.80
2022-12-06T21:51:19.532Z,15.77
2022-12-06T21:53:47.277Z,17.13
2022-12-06T21:56:17.147Z,16.47
2022-12-06T21:58:45.000Z,17.57
2022-12-06T22:01:15.305Z,17.17
2022-12-06T22:03:44.727Z,17.73
2022-12-06T22:06:13.712Z,18.80
2022-12-06T22:08:43.083Z,18.63
2022-12-06T22:11:12.430Z,18.90
2022-12-06T22:13:40.300Z,20.50
2022-12-06T22:16:10.441Z,19.80
2022-12-06T22:18:44.778Z,19.70
2022-12-06T22:21:17.170Z,21.03
2022-12-06T22:23:45.156Z,21.40
2022-12-06T22:26:15.544Z,22.03
2022-12-06T22:28:43.743Z,22.50
2022-12-06T22:31:12.949Z,21.33
2022-12-06T22:33:40.868Z,22.93
2022-12-06T22:36:09.910Z,23.07
2022-12-06T22:38:39.057Z,22.67
2022-12-06T22:41:07.618Z,22.00
2022-12-06T22:43:36.188Z,24.63
2022-12-06T22:46:05.177Z,22.63
2022-12-06T22:48:33.164Z,23.97
2022-12-06T22:51:11.796Z,23.23
2022-12-06T22:53:41.661Z,24.60
2022-12-06T22:56:09.762Z,24.07
2022-12-06T22:58:37.729Z,25.43
2022-12-06T23:01:16.537Z,25.17
2022-12-06T23:03:45.180Z,25.57
2022-12-06T23:06:13.678Z,24.23
2022-12-06T23:08:43.197Z,25.00
2022-12-06T23:11:14.333Z,26.23
2022-12-06T23:13:42.251Z,25.20
2022-12-06T23:16:12.322Z,25.07
2022-12-06T23:18:40.308Z,24.97
2022-12-06T23:21:11.449Z,25.43
2022-12-06T23:23:39.842Z,24.57
2022-12-06T23:26:11.120Z,25.93
2022-12-06T23:28:39.399Z,24.67
2022-12-06T23:31:11.057Z,26.27
2022-12-06T23:33:38.960Z,27.30
2022-12-06T23:36:09.315Z,27.57
2022-12-06T23:38:37.607Z,25.10
2022-12-06T23:41:06.783Z,27.03
2022-12-06T23:43:36.459Z,26.37
2022-12-06T23:46:07.717Z,27.93
2022-12-06T23:48:36.077Z,25.73
2022-12-06T23:51:05.673Z,26.30
2022-12-06T23:53:33.984Z,26.77
2022-12-06T23:56:03.078Z,25.47
2022-12-06T23:58:31.082Z,26.77
